Time;durP1;ratioP1;P1;durP2;ratioP2;P2;SDS_P1;SDS_P2;PMS_P1;PMS_P2;Temp;Humidity;BMP_temperature;BMP_pressure;BME280_temperature;BME280_humidity;BME280_pressure;Samples;Min_cycle;Max_cycle;Signal;HPM_P1;HPM_P2
2023/10/22 00:04:00;;;;;;;;;;;;;;;;;;10378143;28;20445;-76
2023/10/22 00:09:00;;;;;;;;;;;;;;;;;;10372097;28;19925;-77
2023/10/22 00:14:00;;;;;;;;;;;;;;;;;;10373884;28;19928;-73
2023/10/22 00:19:01;;;;;;;;;;;;;;;;;;10382839;28;20473;-73
2023/10/22 00:24:01;;;;;;;;;;;;;;;;;;10388815;28;19935;-75
2023/10/22 00:29:02;;;;;;;;;;;;;;;;;;10392635;28;19974;-76
2023/10/22 00:34:02;;;;;;;;;;;;;;;;;;10372283;28;20477;-76
2023/10/22 00:39:02;;;;;;;;;;;;;;;;;;10385685;28;19921;-73
2023/10/22 00:44:03;;;;;;;;;;;;;;;;;;10377063;28;19925;-75
2023/10/22 00:49:03;;;;;;;;;;;;;;;;;;10390277;28;19928;-75
2023/10/22 00:54:03;;;;;;;;;;;;;;;;;;10372915;28;19920;-76
2023/10/22 00:59:04;;;;;;;;;;;;;;;;;;10383161;28;20377;-75
2023/10/22 01:04:04;;;;;;;;;;;;;;;;;;10362383;28;19940;-73
2023/10/22 01:09:05;;;;;;;;;;;;;;;;;;10384381;28;19999;-75
2023/10/22 01:14:06;;;;;;;;;;;;;;;;;;10386529;28;19929;-74
2023/10/22 01:19:06;;;;;;;;;;;;;;;;;;10372307;28;20326;-74
2023/10/22 01:24:07;;;;;;;;;;;;;;;;;;10394214;28;20355;-75
2023/10/22 01:29:07;;;;;;;;;;;;;;;;;;10376702;28;19933;-74
2023/10/22 01:34:07;;;;;;;;;;;;;;;;;;10375066;28;19925;-74
2023/10/22 01:39:13;;;;;;;;;;;;;;;;;;10389862;28;20671;-74
2023/10/22 01:44:13;;;;;;;;;;;;;;;;;;10373233;28;20773;-76
2023/10/22 01:49:13;;;;;;;;;;;;;;;;;;10387028;28;19925;-75
2023/10/22 01:54:14;;;;;;;;;;;;;;;;;;10371327;28;19921;-75
2023/10/22 01:59:14;;;;;;;;;;;;;;;;;;10385876;28;20471;-79
2023/10/22 02:04:14;;;;;;;;;;;;;;;;;;10373197;28;19936;-78
2023/10/22 02:09:16;;;;;;;;;;;;;;;;;;10385951;28;19925;-80
2023/10/22 02:14:17;;;;;;;;;;;;;;;;;;10388845;28;19921;-75
2023/10/22 02:19:17;;;;;;;;;;;;;;;;;;10372945;28;20364;-77
2023/10/22 02:24:17;;;;;;;;;;;;;;;;;;10383079;28;19932;-75
2023/10/22 02:29:18;;;;;;;;;;;;;;;;;;10399170;28;20065;-75
2023/10/22 02:34:18;;;;;;;;;;;;;;;;;;10390499;28;20016;-78
2023/10/22 02:39:19;;;;;;;;;;;;;;;;;;10370447;28;19928;-76
2023/10/22 02:44:19;;;;;;;;;;;;;;;;;;10386520;28;20503;-76
2023/10/22 02:49:20;;;;;;;;;;;;;;;;;;10364978;28;19921;-75
2023/10/22 02:54:20;;;;;;;;;;;;;;;;;;10367681;28;19983;-74
2023/10/22 02:59:20;;;;;;;;;;;;;;;;;;10360731;28;19929;-78
2023/10/22 03:04:20;;;;;;;;;;;;;;;;;;10355698;28;19929;-77
2023/10/22 03:09:21;;;;;;;;;;;;;;;;;;10349545;28;19925;-75
2023/10/22 03:14:21;;;;;;;;;;;;;;;;;;10373883;28;20566;-76
2023/10/22 03:19:21;;;;;;;;;;;;;;;;;;10379536;28;19928;-78
2023/10/22 03:24:22;;;;;;;;;;;;;;;;;;10389981;28;20059;-76
2023/10/22 03:29:25;;;;;;;;;;;;;;;;;;10386604;28;19928;-78
2023/10/22 03:34:26;;;;;;;;;;;;;;;;;;10370712;28;19976;-74
2023/10/22 03:39:27;;;;;;;;;;;;;;;;;;10385954;28;19927;-75
2023/10/22 03:44:27;;;;;;;;;;;;;;;;;;10387832;28;19935;-74
2023/10/22 03:49:27;;;;;;;;;;;;;;;;;;10389060;28;19975;-74
2023/10/22 03:54:28;;;;;;;;;;;;;;;;;;10388627;28;19925;-74
2023/10/22 03:59:29;;;;;;;;;;;;;;;;;;10391320;28;19967;-75
2023/10/22 04:04:29;;;;;;;;;;;;;;;;;;10369992;28;20532;-74
2023/10/22 04:09:29;;;;;;;;;;;;;;;;;;10368437;28;19925;-76
2023/10/22 04:14:29;;;;;;;;;;;;;;;;;;10386772;28;19988;-75
2023/10/22 04:19:30;;;;;;;;;;;;;;;;;;10388426;28;20399;-75
2023/10/22 04:24:30;;;;;;;;;;;;;;;;;;10386951;28;19954;-75
2023/10/22 04:29:32;;;;;;;;;;;;;;;;;;10386296;28;19967;-75
2023/10/22 04:34:33;;;;;;;;;;;;;;;;;;10386967;28;19921;-76
2023/10/22 04:39:33;;;;;;;;;;;;;;;;;;10383196;28;19939;-75
2023/10/22 04:44:34;;;;;;;;;;;;;;;;;;10379420;28;20824;-75
2023/10/22 04:49:34;;;;;;;;;;;;;;;;;;10375770;28;19925;-73
2023/10/22 04:54:34;;;;;;;;;;;;;;;;;;10361442;28;19936;-76
2023/10/22 04:59:34;;;;;;;;;;;;;;;;;;10383202;28;19925;-75
2023/10/22 05:04:35;;;;;;;;;;;;;;;;;;10383306;28;20059;-75
2023/10/22 05:09:35;;;;;;;;;;;;;;;;;;10383655;28;20003;-78
2023/10/22 05:14:35;;;;;;;;;;;;;;;;;;10390584;28;19925;-75
2023/10/22 05:19:35;;;;;;;;;;;;;;;;;;10390146;28;19925;-77
2023/10/22 05:24:35;;;;;;;;;;;;;;;;;;10398293;28;19933;-77
2023/10/22 05:29:37;;;;;;;;;;;;;;;;;;10394118;28;19951;-75
2023/10/22 05:34:38;;;;;;;;;;;;;;;;;;10396403;28;19925;-75
2023/10/22 05:39:38;;;;;;;;;;;;;;;;;;10391004;28;19925;-74
2023/10/22 05:44:38;;;;;;;;;;;;;;;;;;10385250;28;20592;-76
2023/10/22 05:49:38;;;;;;;;;;;;;;;;;;10383846;28;19925;-77
2023/10/22 05:54:38;;;;;;;;;;;;;;;;;;10380786;28;19925;-77
2023/10/22 05:59:39;;;;;;;;;;;;;;;;;;10382542;28;20336;-75
2023/10/22 06:04:39;;;;;;;;;;;;;;;;;;10380521;28;19937;-74
2023/10/22 06:09:39;;;;;;;;;;;;;;;;;;10385123;28;19951;-74
2023/10/22 06:14:39;;;;;;;;;;;;;;;;;;10378370;28;19952;-74
2023/10/22 06:19:40;;;;;;;;;;;;;;;;;;10388293;28;19928;-77
2023/10/22 06:24:40;;;;;;;;;;;;;;;;;;10391114;28;19929;-76
2023/10/22 06:29:40;;;;;;;;;;;;;;;;;;10374982;28;19933;-76
2023/10/22 06:34:40;;;;;;;;;;;;;;;;;;10395905;28;19917;-78
2023/10/22 06:39:40;;;;;;;;;;;;;;;;;;10396655;28;19947;-77
2023/10/22 06:44:43;;;;;;;;;;;;;;;;;;10396103;28;19975;-75
2023/10/22 06:49:43;;;;;;;;;;;;;;;;;;10393745;28;19928;-74
2023/10/22 06:54:44;;;;;;;;;;;;;;;;;;10393845;28;19921;-77
2023/10/22 06:59:44;;;;;;;;;;;;;;;;;;10393213;28;20460;-72
2023/10/22 07:04:44;;;;;;;;;;;;;;;;;;10391204;28;19929;-75
2023/10/22 07:09:44;;;;;;;;;;;;;;;;;;10388762;28;19925;-75
2023/10/22 07:14:45;;;;;;;;;;;;;;;;;;10389300;28;19921;-74
2023/10/22 07:19:45;;;;;;;;;;;;;;;;;;10390348;28;19987;-77
2023/10/22 07:24:45;;;;;;;;;;;;;;;;;;10392051;28;19960;-77
2023/10/22 07:29:46;;;;;;;;;;;;;;;;;;10353735;28;19925;-76
2023/10/22 07:34:46;;;;;;;;;;;;;;;;;;10385864;28;19983;-75
2023/10/22 07:39:46;;;;;;;;;;;;;;;;;;10384513;28;19921;-75
2023/10/22 07:44:46;;;;;;;;;;;;;;;;;;10381950;28;19929;-76
2023/10/22 07:49:46;;;;;;;;;;;;;;;;;;10383469;28;19953;-75
2023/10/22 07:54:47;;;;;;;;;;;;;;;;;;10374498;28;19925;-76
2023/10/22 07:59:47;;;;;;;;;;;;;;;;;;10372659;28;20046;-74
2023/10/22 08:04:48;;;;;;;;;;;;;;;;;;10381895;28;19959;-76
2023/10/22 08:09:48;;;;;;;;;;;;;;;;;;10379513;28;19925;-81
2023/10/22 08:14:49;;;;;;;;;;;;;;;;;;10386091;28;19921;-78
2023/10/22 08:19:49;;;;;;;;;;;;;;;;;;10376924;28;20361;-81
2023/10/22 08:24:49;;;;;;;;;;;;;;;;;;10392827;28;19925;-78
2023/10/22 08:29:49;;;;;;;;;;;;;;;;;;10395479;28;19990;-77
2023/10/22 08:34:50;;;;;;;;;;;;;;;;;;10389689;28;19921;-80
2023/10/22 08:39:50;;;;;;;;;;;;;;;;;;10393855;28;19974;-79
2023/10/22 08:44:52;;;;;;;;;;;;;;;;;;10383493;28;19974;-82
2023/10/22 08:49:52;;;;;;;;;;;;;;;;;;10383710;28;19921;-78
2023/10/22 08:54:52;;;;;;;;;;;;;;;;;;10379049;28;20393;-84
2023/10/22 08:59:53;;;;;;;;;;;;;;;;;;10390650;28;20591;-80
2023/10/22 09:04:53;;;;;;;;;;;;;;;;;;10389854;28;19933;-83
2023/10/22 09:09:53;;;;;;;;;;;;;;;;;;10396465;28;19921;-83
2023/10/22 09:14:54;;;;;;;;;;;;;;;;;;10378595;28;20351;-80
2023/10/22 09:19:54;;;;;;;;;;;;;;;;;;10402260;28;19992;-79
2023/10/22 09:24:55;;;;;;;;;;;;;;;;;;10398839;28;19929;-79
2023/10/22 09:29:56;;;;;;;;;;;;;;;;;;10371283;28;20432;-82
2023/10/22 09:34:56;;;;;;;;;;;;;;;;;;10384423;28;19933;-82
2023/10/22 09:39:56;;;;;;;;;;;;;;;;;;10388563;28;19921;-82
2023/10/22 09:44:56;;;;;;;;;;;;;;;;;;10367810;28;20416;-84
2023/10/22 09:49:56;;;;;;;;;;;;;;;;;;10388776;28;20197;-82
2023/10/22 09:54:58;;;;;;;;;;;;;;;;;;10392331;28;20022;-80
2023/10/22 10:00:01;;;;;;;;;;;;;;;;;;10393254;28;19928;-85
2023/10/22 10:05:01;;;;;;;;;;;;;;;;;;10389071;28;19936;-78
2023/10/22 10:10:02;;;;;;;;;;;;;;;;;;10398255;28;20362;-83
2023/10/22 10:15:02;;;;;;;;;;;;;;;;;;10389589;28;19921;-82
2023/10/22 10:20:02;;;;;;;;;;;;;;;;;;10418338;28;19928;-80
2023/10/22 10:47:16;;;;;;;;;;;;;;;;;;10460774;28;20015;-82
2023/10/22 10:52:16;;;;;;;;;;;;;;;;;;10451385;28;20009;-84
2023/10/22 10:57:18;;;;;;;;;;;;;;;;;;10434075;28;19921;-83
2023/10/22 11:02:20;;;;;;;;;;;;;;;;;;10438812;28;19929;-80
2023/10/22 11:07:22;;;;;;;;;;;;;;;;;;10463590;28;19994;-83
2023/10/22 11:12:25;;;;;;;;;;;;;;;;;;10453713;28;19927;-83
2023/10/22 11:17:26;;;;;;;;;;;;;;;;;;10463475;28;19929;-84
2023/10/22 11:27:42;;;;;;;;;;;;;;;;;;10442469;28;19967;-80
2023/10/22 11:32:42;;;;;;;;;;;;;;;;;;10414819;28;20451;-77
2023/10/22 11:37:42;;;;;;;;;;;;;;;;;;10434254;28;19917;-82
2023/10/22 11:42:43;;;;;;;;;;;;;;;;;;10436340;28;19931;-78
2023/10/22 11:47:43;;;;;;;;;;;;;;;;;;10414326;28;19916;-77
2023/10/22 11:52:43;;;;;;;;;;;;;;;;;;10433174;28;20437;-76
2023/10/22 11:57:43;;;;;;;;;;;;;;;;;;10433116;28;20024;-80
2023/10/22 12:02:44;;;;;;;;;;;;;;;;;;10412690;28;19935;-80
2023/10/22 12:07:44;;;;;;;;;;;;;;;;;;10416374;28;19921;-80
2023/10/22 12:12:44;;;;;;;;;;;;;;;;;;10431767;28;19994;-78
2023/10/22 12:17:44;;;;;;;;;;;;;;;;;;10477992;28;20731;-78
2023/10/22 12:22:45;;;;;;;;;;;;;;;;;;10462975;28;19928;-77
2023/10/22 12:27:45;;;;;;;;;;;;;;;;;;10466800;28;19921;-74
2023/10/22 12:32:46;;;;;;;;;;;;;;;;;;10460760;28;19950;-75
2023/10/22 12:37:46;;;;;;;;;;;;;;;;;;10453147;28;19927;-78
2023/10/22 12:42:46;;;;;;;;;;;;;;;;;;10466298;28;19936;-75
2023/10/22 12:47:46;;;;;;;;;;;;;;;;;;10458082;28;20028;-75
2023/10/22 12:52:47;;;;;;;;;;;;;;;;;;10464025;28;19924;-79
2023/10/22 12:57:47;;;;;;;;;;;;;;;;;;10451800;28;19920;-78
2023/10/22 13:02:47;;;;;;;;;;;;;;;;;;10458408;28;19974;-78
2023/10/22 13:07:47;;;;;;;;;;;;;;;;;;10454555;28;19925;-78
2023/10/22 13:12:48;;;;;;;;;;;;;;;;;;10467809;28;19932;-76
2023/10/22 13:17:48;;;;;;;;;;;;;;;;;;10450135;28;20319;-75
2023/10/22 13:22:49;;;;;;;;;;;;;;;;;;10463077;28;20350;-77
2023/10/22 13:27:49;;;;;;;;;;;;;;;;;;10468710;28;19924;-80
2023/10/22 13:32:49;;;;;;;;;;;;;;;;;;10466206;28;19920;-78
2023/10/22 13:37:51;;;;;;;;;;;;;;;;;;10456365;28;19924;-80
2023/10/22 13:42:51;;;;;;;;;;;;;;;;;;10467532;28;19954;-78
2023/10/22 13:47:52;;;;;;;;;;;;;;;;;;10474331;28;19981;-76
2023/10/22 13:52:54;;;;;;;;;;;;;;;;;;10475239;28;19920;-76
2023/10/22 13:57:54;;;;;;;;;;;;;;;;;;10463534;28;19934;-76
2023/10/22 14:02:54;;;;;;;;;;;;;;;;;;10458081;28;19939;-76
2023/10/22 14:07:55;;;;;;;;;;;;;;;;;;10457593;28;20013;-76
2023/10/22 14:12:55;;;;;;;;;;;;;;;;;;10465640;28;20603;-75
2023/10/22 14:17:55;;;;;;;;;;;;;;;;;;10473667;28;20049;-74
2023/10/22 14:22:56;;;;;;;;;;;;;;;;;;10480919;28;20518;-77
2023/10/22 14:27:56;;;;;;;;;;;;;;;;;;10453719;28;19950;-76
2023/10/22 14:32:56;;;;;;;;;;;;;;;;;;10474605;28;20005;-77
2023/10/22 14:37:56;;;;;;;;;;;;;;;;;;10459162;28;19930;-75
2023/10/22 14:42:56;;;;;;;;;;;;;;;;;;10450641;28;20876;-75
2023/10/22 14:47:57;;;;;;;;;;;;;;;;;;10484409;28;19925;-75
2023/10/22 14:52:57;;;;;;;;;;;;;;;;;;10460332;28;19924;-80
2023/10/22 14:57:57;;;;;;;;;;;;;;;;;;10468882;28;19924;-77
2023/10/22 15:02:57;;;;;;;;;;;;;;;;;;10465697;28;19939;-76
2023/10/22 15:07:58;;;;;;;;;;;;;;;;;;10472745;28;19925;-80
2023/10/22 15:12:58;;;;;;;;;;;;;;;;;;10471390;28;20388;-76
2023/10/22 15:17:58;;;;;;;;;;;;;;;;;;10459212;28;19928;-78
2023/10/22 15:22:58;;;;;;;;;;;;;;;;;;10472223;28;19955;-76
2023/10/22 15:27:59;;;;;;;;;;;;;;;;;;10481942;28;20581;-76
2023/10/22 15:32:59;;;;;;;;;;;;;;;;;;10467066;28;19933;-76
2023/10/22 15:37:59;;;;;;;;;;;;;;;;;;10473541;28;19924;-75
2023/10/22 15:42:59;;;;;;;;;;;;;;;;;;10473326;28;19932;-76
2023/10/22 15:48:00;;;;;;;;;;;;;;;;;;10451235;28;19945;-76
2023/10/22 15:53:00;;;;;;;;;;;;;;;;;;10460543;28;19920;-76
2023/10/22 15:58:00;;;;;;;;;;;;;;;;;;10455370;28;19960;-76
2023/10/22 16:03:00;;;;;;;;;;;;;;;;;;10463292;28;19955;-76
2023/10/22 16:08:01;;;;;;;;;;;;;;;;;;10463305;28;19946;-75
2023/10/22 16:13:01;;;;;;;;;;;;;;;;;;10462849;28;20626;-74
2023/10/22 16:18:03;;;;;;;;;;;;;;;;;;10457457;28;19931;-75
2023/10/22 16:23:10;;;;;;;;;;;;;;;;;;10471061;28;19975;-74
2023/10/22 16:28:10;;;;;;;;;;;;;;;;;;10467932;28;20019;-75
2023/10/22 16:33:12;;;;;;;;;;;;;;;;;;10454946;28;19924;-76
2023/10/22 16:38:12;;;;;;;;;;;;;;;;;;10479981;28;19924;-78
2023/10/22 16:43:12;;;;;;;;;;;;;;;;;;10481309;28;19981;-77
2023/10/22 16:48:13;;;;;;;;;;;;;;;;;;10471373;28;19978;-80
2023/10/22 16:53:13;;;;;;;;;;;;;;;;;;10471532;28;19942;-77
2023/10/22 16:58:13;;;;;;;;;;;;;;;;;;10475912;28;20384;-75
2023/10/22 17:03:13;;;;;;;;;;;;;;;;;;10477950;28;19933;-79
2023/10/22 17:08:15;;;;;;;;;;;;;;;;;;10483195;28;20391;-75
2023/10/22 17:13:15;;;;;;;;;;;;;;;;;;10479026;28;19928;-80
2023/10/22 17:18:15;;;;;;;;;;;;;;;;;;10481998;28;19924;-75
2023/10/22 17:23:16;;;;;;;;;;;;;;;;;;10456029;28;19928;-77
2023/10/22 17:28:16;;;;;;;;;;;;;;;;;;10483386;28;20284;-77
2023/10/22 17:33:16;;;;;;;;;;;;;;;;;;10473429;28;19971;-77
2023/10/22 17:38:17;;;;;;;;;;;;;;;;;;10474237;28;19920;-75
2023/10/22 17:43:17;;;;;;;;;;;;;;;;;;10446128;28;19939;-75
2023/10/22 17:48:17;;;;;;;;;;;;;;;;;;10476198;28;19971;-75
2023/10/22 17:53:21;;;;;;;;;;;;;;;;;;10470812;28;19970;-81
2023/10/22 17:58:21;;;;;;;;;;;;;;;;;;10476744;28;19975;-76
2023/10/22 18:03:21;;;;;;;;;;;;;;;;;;10476671;28;19929;-79
2023/10/22 18:08:22;;;;;;;;;;;;;;;;;;10476999;28;19920;-75
2023/10/22 18:13:22;;;;;;;;;;;;;;;;;;10478645;28;19928;-76
2023/10/22 18:18:22;;;;;;;;;;;;;;;;;;10477736;28;20009;-78
2023/10/22 18:23:23;;;;;;;;;;;;;;;;;;10480900;28;19939;-78
2023/10/22 18:28:23;;;;;;;;;;;;;;;;;;10472421;28;19927;-77
2023/10/22 18:33:24;;;;;;;;;;;;;;;;;;10473161;28;20656;-75
2023/10/22 18:38:24;;;;;;;;;;;;;;;;;;10454610;28;19939;-77
2023/10/22 18:43:25;;;;;;;;;;;;;;;;;;10470071;28;19932;-75
2023/10/22 18:48:25;;;;;;;;;;;;;;;;;;10473940;28;19969;-77
2023/10/22 18:53:25;;;;;;;;;;;;;;;;;;10449268;28;19975;-77
2023/10/22 18:58:25;;;;;;;;;;;;;;;;;;10463540;28;19967;-77
2023/10/22 19:03:25;;;;;;;;;;;;;;;;;;10453682;28;19928;-75
2023/10/22 19:08:26;;;;;;;;;;;;;;;;;;10477317;28;19920;-76
2023/10/22 19:13:27;;;;;;;;;;;;;;;;;;10474097;28;19924;-75
2023/10/22 19:18:27;;;;;;;;;;;;;;;;;;10475833;28;19925;-75
2023/10/22 19:23:27;;;;;;;;;;;;;;;;;;10461917;28;19951;-76
2023/10/22 19:28:27;;;;;;;;;;;;;;;;;;10455797;28;20546;-75
2023/10/22 19:33:30;;;;;;;;;;;;;;;;;;10467715;28;19971;-75
2023/10/22 19:38:31;;;;;;;;;;;;;;;;;;10459868;28;19966;-76
2023/10/22 19:43:31;;;;;;;;;;;;;;;;;;10458527;28;20503;-78
2023/10/22 19:48:33;;;;;;;;;;;;;;;;;;10479379;28;19920;-76
2023/10/22 19:53:33;;;;;;;;;;;;;;;;;;10468087;28;19959;-75
2023/10/22 19:58:33;;;;;;;;;;;;;;;;;;10456982;28;19920;-76
2023/10/22 20:03:33;;;;;;;;;;;;;;;;;;10470742;28;20698;-75
2023/10/22 20:08:34;;;;;;;;;;;;;;;;;;10475626;28;19959;-78
2023/10/22 20:13:36;;;;;;;;;;;;;;;;;;10485828;28;20121;-79
2023/10/22 20:18:37;;;;;;;;;;;;;;;;;;10459388;28;19929;-79
2023/10/22 20:23:37;;;;;;;;;;;;;;;;;;10464877;28;20044;-76
2023/10/22 20:28:39;;;;;;;;;;;;;;;;;;10459881;28;19928;-81
2023/10/22 20:33:40;;;;;;;;;;;;;;;;;;10471620;28;19920;-78
2023/10/22 20:38:40;;;;;;;;;;;;;;;;;;10476824;28;20396;-82
2023/10/22 20:43:42;;;;;;;;;;;;;;;;;;10474198;28;19928;-78
2023/10/22 20:48:42;;;;;;;;;;;;;;;;;;10473504;28;19967;-82
2023/10/22 20:53:42;;;;;;;;;;;;;;;;;;10471405;28;19966;-79
2023/10/22 20:58:43;;;;;;;;;;;;;;;;;;10456948;28;20310;-79
2023/10/22 21:03:44;;;;;;;;;;;;;;;;;;10466908;28;19932;-79
2023/10/22 21:08:44;;;;;;;;;;;;;;;;;;10475886;28;19956;-80
2023/10/22 21:13:44;;;;;;;;;;;;;;;;;;10471971;28;20295;-78
2023/10/22 21:18:45;;;;;;;;;;;;;;;;;;10464498;28;19921;-82
2023/10/22 21:23:45;;;;;;;;;;;;;;;;;;10472651;28;19928;-83
2023/10/22 21:28:46;;;;;;;;;;;;;;;;;;10453242;28;19931;-79
2023/10/22 21:33:48;;;;;;;;;;;;;;;;;;10469508;28;19920;-77
2023/10/22 21:38:49;;;;;;;;;;;;;;;;;;10463261;28;20635;-78
2023/10/22 21:43:49;;;;;;;;;;;;;;;;;;10453858;28;19928;-79
2023/10/22 21:48:49;;;;;;;;;;;;;;;;;;10447425;28;19955;-80
2023/10/22 21:53:49;;;;;;;;;;;;;;;;;;10475613;28;20377;-81
2023/10/22 21:58:49;;;;;;;;;;;;;;;;;;10467075;28;19921;-82
2023/10/22 22:03:50;;;;;;;;;;;;;;;;;;10459393;28;19935;-81
2023/10/22 22:08:50;;;;;;;;;;;;;;;;;;10465127;28;19927;-81
2023/10/22 22:13:50;;;;;;;;;;;;;;;;;;10451747;28;19943;-80
2023/10/22 22:18:50;;;;;;;;;;;;;;;;;;10469711;28;20452;-78
2023/10/22 22:23:51;;;;;;;;;;;;;;;;;;10452029;28;19956;-78
2023/10/22 22:28:51;;;;;;;;;;;;;;;;;;10453921;28;19921;-79
2023/10/22 22:33:51;;;;;;;;;;;;;;;;;;10464672;28;19985;-81
2023/10/22 22:38:51;;;;;;;;;;;;;;;;;;10472247;28;19924;-83
2023/10/22 22:43:52;;;;;;;;;;;;;;;;;;10465994;28;19955;-81
2023/10/22 22:48:54;;;;;;;;;;;;;;;;;;10433532;28;19929;-79
2023/10/22 22:53:54;;;;;;;;;;;;;;;;;;10451805;28;19943;-79
2023/10/22 22:58:54;;;;;;;;;;;;;;;;;;10455661;28;19925;-78
2023/10/22 23:03:54;;;;;;;;;;;;;;;;;;10466309;28;19936;-77
2023/10/22 23:08:54;;;;;;;;;;;;;;;;;;10446475;28;20326;-83
2023/10/22 23:13:55;;;;;;;;;;;;;;;;;;10432337;28;20284;-79
2023/10/22 23:18:55;;;;;;;;;;;;;;;;;;10462078;28;19971;-77
2023/10/22 23:23:55;;;;;;;;;;;;;;;;;;10469763;28;19924;-79
2023/10/22 23:28:55;;;;;;;;;;;;;;;;;;10458766;28;19925;-78
2023/10/22 23:33:56;;;;;;;;;;;;;;;;;;10456525;28;20611;-79
2023/10/22 23:38:56;;;;;;;;;;;;;;;;;;10472871;28;19925;-79
2023/10/22 23:43:56;;;;;;;;;;;;;;;;;;10458539;28;19932;-80
2023/10/22 23:48:56;;;;;;;;;;;;;;;;;;10487515;28;21099;-80
2023/10/22 23:53:56;;;;;;;;;;;;;;;;;;10461433;28;19925;-79
2023/10/22 23:58:57;;;;;;;;;;;;;;;;;;10459481;28;19920;-78
